createdAt,value
2022-10-30T00:02:35.419Z,99.90
2022-10-30T00:05:57.680Z,99.90
2022-10-30T00:09:19.848Z,99.90
2022-10-30T00:12:42.721Z,99.90
2022-10-30T00:16:07.833Z,99.90
2022-10-30T00:19:29.895Z,99.90
2022-10-30T00:22:52.097Z,99.90
2022-10-30T00:26:15.142Z,99.90
2022-10-30T00:29:37.700Z,99.90
2022-10-30T00:33:00.069Z,99.90
2022-10-30T00:36:23.446Z,99.90
2022-10-30T00:39:45.568Z,99.90
2022-10-30T00:43:28.388Z,99.90
2022-10-30T00:46:50.594Z,99.90
2022-10-30T00:50:20.855Z,99.90
2022-10-30T00:53:43.539Z,99.90
2022-10-30T00:57:07.825Z,99.90
2022-10-30T01:00:30.778Z,99.90
2022-10-30T01:03:58.321Z,99.90
2022-10-30T01:07:21.154Z,99.90
2022-10-30T01:10:44.020Z,99.90
2022-10-30T01:14:08.618Z,99.90
2022-10-30T01:17:36.950Z,99.90
2022-10-30T01:21:08.592Z,99.90
2022-10-30T01:24:30.702Z,99.90
2022-10-30T01:28:07.772Z,99.90
2022-10-30T01:31:41.120Z,99.90
2022-10-30T01:35:17.983Z,99.90
2022-10-30T01:38:52.728Z,99.90
2022-10-30T01:42:47.564Z,99.90
2022-10-30T01:46:35.476Z,99.90
2022-10-30T01:50:42.757Z,99.90
2022-10-30T01:54:20.565Z,99.90
2022-10-30T01:57:55.729Z,99.90
2022-10-30T02:01:18.910Z,99.90
2022-10-30T02:04:43.019Z,99.90
2022-10-30T02:08:06.698Z,99.90
2022-10-30T02:11:33.935Z,99.90
2022-10-30T02:15:00.085Z,99.90
2022-10-30T02:18:22.328Z,99.90
2022-10-30T02:21:44.688Z,99.90
2022-10-30T02:25:07.941Z,99.90
2022-10-30T02:28:30.241Z,99.90
2022-10-30T02:31:52.450Z,99.90
2022-10-30T02:35:14.680Z,99.90
2022-10-30T02:38:36.816Z,99.90
2022-10-30T02:42:01.873Z,99.90
2022-10-30T02:45:24.020Z,99.90
2022-10-30T02:48:46.192Z,99.90
2022-10-30T02:52:09.477Z,99.90
2022-10-30T02:55:31.646Z,99.90
2022-10-30T02:58:55.748Z,99.90
2022-10-30T03:02:18.384Z,99.90
2022-10-30T03:05:40.613Z,99.90
2022-10-30T03:09:02.819Z,99.90
2022-10-30T03:12:24.977Z,99.90
2022-10-30T03:15:47.707Z,99.90
2022-10-30T03:19:10.112Z,99.90
2022-10-30T03:22:32.477Z,99.90
2022-10-30T03:25:57.220Z,99.90
2022-10-30T03:29:20.265Z,99.90
2022-10-30T03:32:42.461Z,99.90
2022-10-30T03:36:09.381Z,99.90
2022-10-30T03:39:31.553Z,99.90
2022-10-30T03:42:53.731Z,99.90
2022-10-30T03:46:15.941Z,99.90
2022-10-30T03:49:38.736Z,99.90
2022-10-30T03:53:05.420Z,99.90
2022-10-30T03:56:27.692Z,99.90
2022-10-30T03:59:54.087Z,99.90
2022-10-30T04:03:34.979Z,99.90
2022-10-30T04:06:57.178Z,99.90
2022-10-30T04:10:22.854Z,99.90
2022-10-30T04:13:46.866Z,99.90
2022-10-30T04:20:36.273Z,99.90
2022-10-30T04:23:58.497Z,99.90
2022-10-30T04:27:23.801Z,99.90
2022-10-30T04:30:47.062Z,99.90
2022-10-30T04:34:12.288Z,99.90
2022-10-30T04:37:34.621Z,99.90
2022-10-30T04:40:56.757Z,99.90
2022-10-30T04:44:27.456Z,99.90
2022-10-30T04:47:50.783Z,99.90
2022-10-30T04:51:13.959Z,99.90
2022-10-30T04:54:36.102Z,99.90
2022-10-30T04:58:00.026Z,99.90
2022-10-30T05:01:24.733Z,99.90
2022-10-30T05:04:47.073Z,99.90
2022-10-30T05:08:09.356Z,99.90
2022-10-30T05:11:32.042Z,99.90
2022-10-30T05:14:54.376Z,99.90
2022-10-30T05:18:16.842Z,99.90
2022-10-30T05:21:39.577Z,99.90
2022-10-30T05:25:01.838Z,99.90
2022-10-30T05:28:24.176Z,99.90
2022-10-30T05:31:51.695Z,99.90
2022-10-30T05:35:28.948Z,99.90
2022-10-30T05:38:51.470Z,99.90
2022-10-30T05:42:29.887Z,99.90
2022-10-30T05:45:55.128Z,99.90
2022-10-30T05:49:18.047Z,99.90
2022-10-30T05:52:40.529Z,99.90
2022-10-30T05:56:04.373Z,99.90
2022-10-30T05:59:29.580Z,99.90
2022-10-30T06:02:51.955Z,99.90
2022-10-30T06:06:14.186Z,99.90
2022-10-30T06:09:36.338Z,99.90
2022-10-30T06:13:17.299Z,99.90
2022-10-30T06:16:49.346Z,99.90
2022-10-30T06:20:11.643Z,99.90
2022-10-30T06:23:56.790Z,99.90
2022-10-30T06:27:31.807Z,99.90
2022-10-30T06:30:55.087Z,99.90
2022-10-30T06:34:17.365Z,99.90
2022-10-30T06:37:48.553Z,99.90
2022-10-30T06:41:13.437Z,99.90
2022-10-30T06:44:54.241Z,99.90
2022-10-30T06:48:18.737Z,99.90
2022-10-30T06:51:46.250Z,99.90
2022-10-30T06:55:09.508Z,99.90
2022-10-30T06:58:54.856Z,99.90
2022-10-30T07:03:02.072Z,99.90
2022-10-30T07:06:25.377Z,99.90
2022-10-30T07:09:48.039Z,99.90
2022-10-30T07:13:15.276Z,99.90
2022-10-30T07:16:49.264Z,99.90
2022-10-30T07:20:11.981Z,99.90
2022-10-30T07:23:36.516Z,99.90
2022-10-30T07:27:18.956Z,99.90
2022-10-30T07:31:00.796Z,99.90
2022-10-30T07:34:43.176Z,99.90
2022-10-30T07:38:17.736Z,99.90
2022-10-30T07:41:50.611Z,99.90
2022-10-30T07:45:35.750Z,99.90
2022-10-30T07:49:27.272Z,99.90
2022-10-30T07:52:54.093Z,99.90
2022-10-30T07:56:20.407Z,99.90
2022-10-30T08:03:38.799Z,99.90
2022-10-30T08:07:07.051Z,99.90
2022-10-30T08:10:29.493Z,99.90
2022-10-30T08:13:52.407Z,99.90
2022-10-30T08:17:14.748Z,99.90
2022-10-30T08:20:38.752Z,99.90
2022-10-30T08:24:01.043Z,99.90
2022-10-30T08:27:26.009Z,99.90
2022-10-30T08:30:48.396Z,99.90
2022-10-30T08:34:14.147Z,99.90
2022-10-30T08:37:41.897Z,99.90
2022-10-30T08:41:05.220Z,99.90
2022-10-30T08:44:31.384Z,99.90
2022-10-30T08:48:15.395Z,99.90
2022-10-30T08:51:39.471Z,99.90
2022-10-30T08:55:03.998Z,99.90
2022-10-30T08:58:27.496Z,99.90
2022-10-30T09:01:51.046Z,99.90
2022-10-30T09:05:33.352Z,99.90
2022-10-30T09:09:24.659Z,99.90
2022-10-30T09:12:56.023Z,99.90
2022-10-30T09:16:18.881Z,99.90
2022-10-30T09:19:41.668Z,99.90
2022-10-30T09:23:05.268Z,99.90
2022-10-30T09:26:27.556Z,99.90
2022-10-30T09:30:18.913Z,99.90
2022-10-30T09:33:45.315Z,99.90
2022-10-30T09:37:27.619Z,99.90
2022-10-30T09:41:27.242Z,99.90
2022-10-30T09:45:29.085Z,99.90
2022-10-30T09:52:40.619Z,99.90
2022-10-30T09:56:12.272Z,99.90
2022-10-30T09:59:37.268Z,99.90
2022-10-30T10:03:33.325Z,99.90
2022-10-30T10:07:35.509Z,99.90
2022-10-30T10:11:26.030Z,99.90
2022-10-30T10:14:48.922Z,99.90
2022-10-30T10:18:20.448Z,99.90
2022-10-30T10:21:57.955Z,99.90
2022-10-30T10:25:21.087Z,99.90
2022-10-30T10:28:52.927Z,99.90
2022-10-30T10:32:42.413Z,99.90
2022-10-30T10:36:20.909Z,99.90
2022-10-30T10:39:46.064Z,99.90
2022-10-30T10:43:21.212Z,99.90
2022-10-30T10:46:49.365Z,99.90
2022-10-30T10:50:29.491Z,99.90
2022-10-30T10:54:08.971Z,99.90
2022-10-30T10:57:37.772Z,99.90
2022-10-30T11:01:00.368Z,99.90
2022-10-30T11:04:36.697Z,99.90
2022-10-30T11:08:13.135Z,99.90
2022-10-30T11:11:35.302Z,99.90
2022-10-30T11:15:22.922Z,99.90
2022-10-30T11:18:47.768Z,99.90
2022-10-30T11:22:25.724Z,99.90
2022-10-30T11:25:47.924Z,99.90
2022-10-30T11:29:18.586Z,99.90
2022-10-30T11:32:40.840Z,99.90
2022-10-30T11:36:14.588Z,99.90
2022-10-30T11:39:38.065Z,99.90
2022-10-30T11:43:04.006Z,99.90
2022-10-30T11:46:26.349Z,99.90
2022-10-30T11:49:54.035Z,99.90
2022-10-30T11:53:31.064Z,99.90
2022-10-30T11:56:54.256Z,99.90
2022-10-30T12:00:22.781Z,99.90
2022-10-30T12:03:44.974Z,99.90
2022-10-30T12:07:22.875Z,99.90
2022-10-30T12:10:58.624Z,99.90
2022-10-30T12:14:23.280Z,99.90
2022-10-30T12:17:53.328Z,99.90
2022-10-30T12:21:19.283Z,99.90
2022-10-30T12:24:44.232Z,99.90
2022-10-30T12:28:07.834Z,99.90
2022-10-30T12:31:41.308Z,99.90
2022-10-30T12:35:15.095Z,99.90
2022-10-30T12:38:45.332Z,99.90
2022-10-30T12:42:13.440Z,99.90
2022-10-30T12:45:47.742Z,99.90
2022-10-30T12:49:40.310Z,99.90
2022-10-30T12:53:05.983Z,99.90
2022-10-30T12:56:37.944Z,99.90
2022-10-30T13:00:03.482Z,99.90
2022-10-30T13:03:37.295Z,99.90
2022-10-30T13:07:33.600Z,99.90
2022-10-30T13:11:11.703Z,99.90
2022-10-30T13:15:06.071Z,99.90
2022-10-30T13:18:33.013Z,99.90
2022-10-30T13:22:21.126Z,99.90
2022-10-30T13:25:49.314Z,99.90
2022-10-30T13:29:33.831Z,99.90
2022-10-30T13:33:13.658Z,99.90
2022-10-30T13:36:42.437Z,99.90
2022-10-30T13:40:34.993Z,99.90
2022-10-30T13:44:24.465Z,99.90
2022-10-30T13:47:57.048Z,99.90
2022-10-30T13:51:42.790Z,99.90
2022-10-30T13:55:24.337Z,99.90
2022-10-30T13:58:49.473Z,99.90
2022-10-30T14:02:16.895Z,99.90
2022-10-30T14:05:47.487Z,99.90
2022-10-30T14:09:29.924Z,99.90
2022-10-30T14:12:54.858Z,99.90
2022-10-30T14:17:03.487Z,99.90
2022-10-30T14:20:27.470Z,99.90
2022-10-30T14:24:02.807Z,99.90
2022-10-30T14:27:29.075Z,99.90
2022-10-30T14:31:06.747Z,99.90
2022-10-30T14:34:41.706Z,99.90
2022-10-30T14:38:06.860Z,99.90
2022-10-30T14:41:28.974Z,99.90
2022-10-30T14:45:25.061Z,99.90
2022-10-30T14:48:59.349Z,99.90
2022-10-30T14:52:53.004Z,99.90
2022-10-30T14:59:42.261Z,99.90
2022-10-30T15:03:10.327Z,99.90
2022-10-30T15:06:57.131Z,99.20
2022-10-30T15:10:31.166Z,99.40
2022-10-30T15:13:57.406Z,99.90
2022-10-30T15:17:40.954Z,99.20
2022-10-30T15:21:07.447Z,99.00
2022-10-30T15:24:32.501Z,99.90
2022-10-30T15:27:57.500Z,99.90
2022-10-30T15:31:27.903Z,99.90
2022-10-30T15:35:02.976Z,99.90
2022-10-30T15:38:25.699Z,99.90
2022-10-30T15:41:59.840Z,99.90
2022-10-30T15:45:34.167Z,99.90
2022-10-30T15:48:56.721Z,99.90
2022-10-30T15:52:23.158Z,99.90
2022-10-30T15:55:45.525Z,99.70
2022-10-30T15:59:17.625Z,99.60
2022-10-30T16:02:40.737Z,99.70
2022-10-30T16:06:25.408Z,99.50
2022-10-30T16:09:59.534Z,99.30
2022-10-30T16:13:30.471Z,99.20
2022-10-30T16:16:53.153Z,99.30
2022-10-30T16:20:17.267Z,99.20
2022-10-30T16:23:46.399Z,99.40
2022-10-30T16:27:16.482Z,99.30
2022-10-30T16:30:38.776Z,99.20
2022-10-30T16:34:03.104Z,99.30
2022-10-30T16:37:38.424Z,99.30
2022-10-30T16:41:01.266Z,99.40
2022-10-30T16:44:27.838Z,99.50
2022-10-30T16:47:58.356Z,99.60
2022-10-30T16:51:21.528Z,99.90
2022-10-30T16:54:59.588Z,99.90
2022-10-30T16:58:26.360Z,99.90
2022-10-30T17:02:00.781Z,99.90
2022-10-30T17:05:34.937Z,99.90
2022-10-30T17:08:59.841Z,99.90
2022-10-30T17:12:24.841Z,99.90
2022-10-30T17:15:47.559Z,99.90
2022-10-30T17:19:31.356Z,99.90
2022-10-30T17:23:16.674Z,99.90
2022-10-30T17:26:39.220Z,99.90
2022-10-30T17:30:01.773Z,99.90
2022-10-30T17:33:37.273Z,99.90
2022-10-30T17:36:59.800Z,99.90
2022-10-30T17:40:22.032Z,99.90
2022-10-30T17:43:55.882Z,99.90
2022-10-30T17:47:19.700Z,99.90
2022-10-30T17:50:42.431Z,99.90
2022-10-30T17:54:09.947Z,99.90
2022-10-30T17:57:32.182Z,99.90
2022-10-30T18:00:54.385Z,99.90
2022-10-30T18:04:20.618Z,99.90
2022-10-30T18:07:43.965Z,99.90
2022-10-30T18:11:06.163Z,99.90
2022-10-30T18:14:28.304Z,99.90
2022-10-30T18:17:50.591Z,99.90
2022-10-30T18:21:18.637Z,99.90
2022-10-30T18:24:41.405Z,99.90
2022-10-30T18:28:03.878Z,99.90
2022-10-30T18:31:26.083Z,99.90
2022-10-30T18:34:48.783Z,99.90
2022-10-30T18:38:12.459Z,99.90
2022-10-30T18:41:46.523Z,99.90
2022-10-30T18:45:24.380Z,99.90
2022-10-30T18:48:46.705Z,99.90
2022-10-30T18:52:09.276Z,99.90
2022-10-30T18:55:39.806Z,99.90
2022-10-30T18:59:02.759Z,99.90
2022-10-30T19:02:25.308Z,99.90
2022-10-30T19:05:49.768Z,99.90
2022-10-30T19:09:11.891Z,99.90
2022-10-30T19:12:38.435Z,99.90
2022-10-30T19:16:01.150Z,99.90
2022-10-30T19:19:23.403Z,99.90
2022-10-30T19:22:45.572Z,99.90
2022-10-30T19:26:07.894Z,99.90
2022-10-30T19:29:30.107Z,99.90
2022-10-30T19:32:52.469Z,99.90
2022-10-30T19:36:44.261Z,99.90
2022-10-30T19:40:29.403Z,99.90
2022-10-30T19:43:51.854Z,99.90
2022-10-30T19:47:13.995Z,99.90
2022-10-30T19:50:38.372Z,99.90
2022-10-30T19:54:00.489Z,99.90
2022-10-30T19:57:22.708Z,99.90
2022-10-30T20:00:46.704Z,99.90
2022-10-30T20:04:08.931Z,99.90
2022-10-30T20:07:31.123Z,99.90
2022-10-30T20:10:55.915Z,99.90
2022-10-30T20:14:18.030Z,99.90
2022-10-30T20:17:40.235Z,99.90
2022-10-30T20:21:05.348Z,99.90
2022-10-30T20:24:27.457Z,99.90
2022-10-30T20:31:18.486Z,99.90
2022-10-30T20:34:40.777Z,99.90
2022-10-30T20:38:03.594Z,99.90
2022-10-30T20:41:29.026Z,99.90
2022-10-30T20:44:51.546Z,99.90
2022-10-30T20:48:13.959Z,99.90
2022-10-30T20:51:36.105Z,99.90
2022-10-30T20:54:58.318Z,99.90
2022-10-30T20:58:21.028Z,99.90
2022-10-30T21:01:43.341Z,99.90
2022-10-30T21:05:11.815Z,99.90
2022-10-30T21:08:39.616Z,99.90
2022-10-30T21:12:01.823Z,99.90
2022-10-30T21:15:24.123Z,99.90
2022-10-30T21:18:54.647Z,99.90
2022-10-30T21:22:16.791Z,99.90
2022-10-30T21:25:38.983Z,99.90
2022-10-30T21:29:01.621Z,99.90
2022-10-30T21:32:23.849Z,99.90
2022-10-30T21:35:45.989Z,99.90
2022-10-30T21:39:08.418Z,99.90
2022-10-30T21:42:30.882Z,99.90
2022-10-30T21:45:53.016Z,99.90
2022-10-30T21:49:16.376Z,99.90
2022-10-30T21:52:38.577Z,99.90
2022-10-30T21:56:11.930Z,99.90
2022-10-30T21:59:34.833Z,99.90
2022-10-30T22:02:57.470Z,99.90
2022-10-30T22:06:21.876Z,99.90
2022-10-30T22:09:44.035Z,99.90
2022-10-30T22:13:06.206Z,99.90
2022-10-30T22:16:30.180Z,99.90
2022-10-30T22:19:53.533Z,99.90
2022-10-30T22:23:15.783Z,99.90
2022-10-30T22:26:37.917Z,99.90
2022-10-30T22:30:00.103Z,99.90
2022-10-30T22:33:22.268Z,99.90
2022-10-30T22:36:44.473Z,99.90
2022-10-30T22:40:06.988Z,99.90
2022-10-30T22:43:29.113Z,99.90
2022-10-30T22:46:51.304Z,99.90
2022-10-30T22:50:13.437Z,99.90
2022-10-30T22:53:37.608Z,99.90
2022-10-30T22:56:59.748Z,99.90
2022-10-30T23:00:26.830Z,99.90
2022-10-30T23:03:49.412Z,99.90
2022-10-30T23:07:11.640Z,99.90
2022-10-30T23:10:33.832Z,99.90
2022-10-30T23:13:56.391Z,99.90
2022-10-30T23:17:18.548Z,99.90
2022-10-30T23:20:42.024Z,99.90
2022-10-30T23:24:05.359Z,99.90
2022-10-30T23:27:33.036Z,99.90
2022-10-30T23:30:55.189Z,99.90
2022-10-30T23:34:17.580Z,99.90
2022-10-30T23:37:39.687Z,99.90
2022-10-30T23:41:01.799Z,99.90
2022-10-30T23:44:23.982Z,99.90
2022-10-30T23:47:46.118Z,99.90
2022-10-30T23:51:09.141Z,99.90
2022-10-30T23:54:31.257Z,99.90
2022-10-30T23:57:53.491Z,99.90
